sensor_id;sensor_type;location;lat;lon;timestamp;P1;durP1;ratioP1;P2;durP2;ratioP2
64667;SDS011;51077;42.716;23.344;2023-06-05T00:00:44;9.10;;;5.43;;
64667;SDS011;51077;42.716;23.344;2023-06-05T00:03:09;10.07;;;5.10;;
64667;SDS011;51077;42.716;23.344;2023-06-05T00:05:35;7.37;;;5.43;;
64667;SDS011;51077;42.716;23.344;2023-06-05T00:08:01;8.82;;;4.90;;
64667;SDS011;51077;42.716;23.344;2023-06-05T00:10:26;7.93;;;5.43;;
64667;SDS011;51077;42.716;23.344;2023-06-05T00:12:52;9.73;;;5.43;;
64667;SDS011;51077;42.716;23.344;2023-06-05T00:15:18;8.47;;;5.43;;
64667;SDS011;51077;42.716;23.344;2023-06-05T00:17:43;6.70;;;5.20;;
64667;SDS011;51077;42.716;23.344;2023-06-05T00:20:09;7.60;;;5.60;;
64667;SDS011;51077;42.716;23.344;2023-06-05T00:22:35;7.27;;;5.13;;
64667;SDS011;51077;42.716;23.344;2023-06-05T00:25:01;9.37;;;5.40;;
64667;SDS011;51077;42.716;23.344;2023-06-05T00:27:30;6.67;;;5.23;;
64667;SDS011;51077;42.716;23.344;2023-06-05T00:29:55;7.95;;;6.00;;
64667;SDS011;51077;42.716;23.344;2023-06-05T00:32:21;8.10;;;5.30;;
64667;SDS011;51077;42.716;23.344;2023-06-05T00:34:46;7.23;;;5.40;;
64667;SDS011;51077;42.716;23.344;2023-06-05T00:37:15;7.93;;;6.38;;
64667;SDS011;51077;42.716;23.344;2023-06-05T00:39:40;8.30;;;6.17;;
64667;SDS011;51077;42.716;23.344;2023-06-05T00:42:06;7.53;;;6.13;;
64667;SDS011;51077;42.716;23.344;2023-06-05T00:44:33;7.13;;;5.80;;
64667;SDS011;51077;42.716;23.344;2023-06-05T00:46:59;11.40;;;5.57;;
64667;SDS011;51077;42.716;23.344;2023-06-05T00:49:26;7.60;;;5.70;;
64667;SDS011;51077;42.716;23.344;2023-06-05T00:51:51;10.73;;;6.43;;
64667;SDS011;51077;42.716;23.344;2023-06-05T00:54:17;8.40;;;5.70;;
64667;SDS011;51077;42.716;23.344;2023-06-05T00:56:43;6.68;;;5.18;;
64667;SDS011;51077;42.716;23.344;2023-06-05T00:59:10;9.20;;;5.50;;
64667;SDS011;51077;42.716;23.344;2023-06-05T01:01:37;8.00;;;5.70;;
64667;SDS011;51077;42.716;23.344;2023-06-05T01:04:03;8.70;;;5.70;;
64667;SDS011;51077;42.716;23.344;2023-06-05T01:06:29;8.00;;;5.60;;
64667;SDS011;51077;42.716;23.344;2023-06-05T01:08:59;8.55;;;5.82;;
64667;SDS011;51077;42.716;23.344;2023-06-05T01:11:40;9.77;;;5.97;;
64667;SDS011;51077;42.716;23.344;2023-06-05T01:14:30;9.40;;;5.40;;
64667;SDS011;51077;42.716;23.344;2023-06-05T01:16:59;8.20;;;5.45;;
64667;SDS011;51077;42.716;23.344;2023-06-05T01:19:27;11.57;;;5.70;;
64667;SDS011;51077;42.716;23.344;2023-06-05T01:21:57;9.10;;;5.68;;
64667;SDS011;51077;42.716;23.344;2023-06-05T01:24:22;9.27;;;5.55;;
64667;SDS011;51077;42.716;23.344;2023-06-05T01:26:55;8.18;;;5.35;;
64667;SDS011;51077;42.716;23.344;2023-06-05T01:33:15;8.70;;;5.47;;
64667;SDS011;51077;42.716;23.344;2023-06-05T01:38:05;6.75;;;4.97;;
64667;SDS011;51077;42.716;23.344;2023-06-05T01:40:31;7.18;;;5.35;;
64667;SDS011;51077;42.716;23.344;2023-06-05T01:42:59;8.93;;;5.40;;
64667;SDS011;51077;42.716;23.344;2023-06-05T01:45:26;6.35;;;4.90;;
64667;SDS011;51077;42.716;23.344;2023-06-05T01:47:52;8.13;;;5.30;;
64667;SDS011;51077;42.716;23.344;2023-06-05T01:50:18;8.23;;;5.18;;
64667;SDS011;51077;42.716;23.344;2023-06-05T01:52:44;6.43;;;5.07;;
64667;SDS011;51077;42.716;23.344;2023-06-05T01:55:18;7.53;;;5.13;;
64667;SDS011;51077;42.716;23.344;2023-06-05T01:57:48;7.03;;;4.97;;
64667;SDS011;51077;42.716;23.344;2023-06-05T02:00:15;8.75;;;5.35;;
64667;SDS011;51077;42.716;23.344;2023-06-05T02:02:50;7.87;;;5.37;;
64667;SDS011;51077;42.716;23.344;2023-06-05T02:05:16;7.20;;;5.75;;
64667;SDS011;51077;42.716;23.344;2023-06-05T02:07:45;8.38;;;5.05;;
64667;SDS011;51077;42.716;23.344;2023-06-05T02:10:14;7.45;;;4.97;;
64667;SDS011;51077;42.716;23.344;2023-06-05T02:12:39;7.83;;;5.00;;
64667;SDS011;51077;42.716;23.344;2023-06-05T02:15:07;6.95;;;5.25;;
64667;SDS011;51077;42.716;23.344;2023-06-05T02:17:34;6.57;;;5.20;;
64667;SDS011;51077;42.716;23.344;2023-06-05T02:19:59;10.00;;;5.63;;
64667;SDS011;51077;42.716;23.344;2023-06-05T02:22:25;9.15;;;5.72;;
64667;SDS011;51077;42.716;23.344;2023-06-05T02:24:51;6.13;;;4.93;;
64667;SDS011;51077;42.716;23.344;2023-06-05T02:27:19;8.10;;;5.10;;
64667;SDS011;51077;42.716;23.344;2023-06-05T02:29:44;7.47;;;5.17;;
64667;SDS011;51077;42.716;23.344;2023-06-05T02:32:10;6.07;;;4.70;;
64667;SDS011;51077;42.716;23.344;2023-06-05T02:34:36;9.27;;;5.25;;
64667;SDS011;51077;42.716;23.344;2023-06-05T02:37:02;6.70;;;4.85;;
64667;SDS011;51077;42.716;23.344;2023-06-05T02:39:28;8.00;;;5.87;;
64667;SDS011;51077;42.716;23.344;2023-06-05T02:41:55;8.50;;;5.00;;
64667;SDS011;51077;42.716;23.344;2023-06-05T02:44:22;8.23;;;5.72;;
64667;SDS011;51077;42.716;23.344;2023-06-05T02:46:47;10.13;;;6.00;;
64667;SDS011;51077;42.716;23.344;2023-06-05T02:49:12;10.27;;;5.90;;
64667;SDS011;51077;42.716;23.344;2023-06-05T02:51:38;9.03;;;5.63;;
64667;SDS011;51077;42.716;23.344;2023-06-05T02:54:03;8.77;;;5.70;;
64667;SDS011;51077;42.716;23.344;2023-06-05T02:56:29;10.87;;;6.07;;
64667;SDS011;51077;42.716;23.344;2023-06-05T02:58:54;8.87;;;5.77;;
64667;SDS011;51077;42.716;23.344;2023-06-05T03:01:21;8.95;;;6.55;;
64667;SDS011;51077;42.716;23.344;2023-06-05T03:03:47;10.00;;;5.90;;
64667;SDS011;51077;42.716;23.344;2023-06-05T03:06:13;9.93;;;6.35;;
64667;SDS011;51077;42.716;23.344;2023-06-05T03:08:42;9.65;;;5.85;;
64667;SDS011;51077;42.716;23.344;2023-06-05T03:11:08;9.17;;;6.37;;
64667;SDS011;51077;42.716;23.344;2023-06-05T03:13:33;7.10;;;5.40;;
64667;SDS011;51077;42.716;23.344;2023-06-05T03:15:59;9.27;;;5.93;;
64667;SDS011;51077;42.716;23.344;2023-06-05T03:18:27;8.98;;;5.57;;
64667;SDS011;51077;42.716;23.344;2023-06-05T03:20:53;8.68;;;6.10;;
64667;SDS011;51077;42.716;23.344;2023-06-05T03:23:22;7.18;;;5.38;;
64667;SDS011;51077;42.716;23.344;2023-06-05T03:25:52;11.38;;;6.45;;
64667;SDS011;51077;42.716;23.344;2023-06-05T03:28:19;11.07;;;6.85;;
64667;SDS011;51077;42.716;23.344;2023-06-05T03:30:46;10.15;;;6.72;;
64667;SDS011;51077;42.716;23.344;2023-06-05T03:33:12;9.20;;;6.35;;
64667;SDS011;51077;42.716;23.344;2023-06-05T03:35:39;6.90;;;5.60;;
64667;SDS011;51077;42.716;23.344;2023-06-05T03:38:05;9.45;;;5.50;;
64667;SDS011;51077;42.716;23.344;2023-06-05T03:40:31;8.77;;;5.77;;
64667;SDS011;51077;42.716;23.344;2023-06-05T03:42:56;9.90;;;5.97;;
64667;SDS011;51077;42.716;23.344;2023-06-05T03:45:22;10.07;;;5.90;;
64667;SDS011;51077;42.716;23.344;2023-06-05T03:47:47;11.57;;;6.10;;
64667;SDS011;51077;42.716;23.344;2023-06-05T03:50:13;7.32;;;5.65;;
64667;SDS011;51077;42.716;23.344;2023-06-05T03:52:40;8.55;;;5.75;;
64667;SDS011;51077;42.716;23.344;2023-06-05T03:55:06;9.87;;;5.67;;
64667;SDS011;51077;42.716;23.344;2023-06-05T03:57:33;10.23;;;6.05;;
64667;SDS011;51077;42.716;23.344;2023-06-05T03:59:59;12.27;;;6.47;;
64667;SDS011;51077;42.716;23.344;2023-06-05T04:02:25;8.90;;;5.60;;
64667;SDS011;51077;42.716;23.344;2023-06-05T04:04:50;15.73;;;7.37;;
64667;SDS011;51077;42.716;23.344;2023-06-05T04:07:16;9.67;;;5.97;;
64667;SDS011;51077;42.716;23.344;2023-06-05T04:09:42;12.40;;;6.97;;
64667;SDS011;51077;42.716;23.344;2023-06-05T04:12:07;9.90;;;5.63;;
64667;SDS011;51077;42.716;23.344;2023-06-05T04:14:35;9.20;;;6.22;;
64667;SDS011;51077;42.716;23.344;2023-06-05T04:17:01;9.35;;;6.15;;
64667;SDS011;51077;42.716;23.344;2023-06-05T04:19:28;11.77;;;6.50;;
64667;SDS011;51077;42.716;23.344;2023-06-05T04:21:53;13.37;;;5.73;;
64667;SDS011;51077;42.716;23.344;2023-06-05T04:24:19;9.10;;;6.70;;
64667;SDS011;51077;42.716;23.344;2023-06-05T04:26:44;10.03;;;6.27;;
64667;SDS011;51077;42.716;23.344;2023-06-05T04:29:10;9.37;;;6.43;;
64667;SDS011;51077;42.716;23.344;2023-06-05T04:31:44;8.82;;;6.72;;
64667;SDS011;51077;42.716;23.344;2023-06-05T04:34:10;7.85;;;5.95;;
64667;SDS011;51077;42.716;23.344;2023-06-05T04:36:36;8.93;;;6.43;;
64667;SDS011;51077;42.716;23.344;2023-06-05T04:39:02;12.87;;;5.77;;
64667;SDS011;51077;42.716;23.344;2023-06-05T04:41:30;9.60;;;6.70;;
64667;SDS011;51077;42.716;23.344;2023-06-05T04:43:57;9.88;;;5.72;;
64667;SDS011;51077;42.716;23.344;2023-06-05T04:46:24;9.75;;;6.50;;
64667;SDS011;51077;42.716;23.344;2023-06-05T04:48:51;11.43;;;6.80;;
64667;SDS011;51077;42.716;23.344;2023-06-05T04:51:20;9.18;;;6.40;;
64667;SDS011;51077;42.716;23.344;2023-06-05T04:53:47;12.50;;;6.75;;
64667;SDS011;51077;42.716;23.344;2023-06-05T04:56:15;8.50;;;6.80;;
64667;SDS011;51077;42.716;23.344;2023-06-05T04:58:41;10.98;;;6.15;;
64667;SDS011;51077;42.716;23.344;2023-06-05T05:01:07;9.87;;;6.60;;
64667;SDS011;51077;42.716;23.344;2023-06-05T05:03:33;8.27;;;6.27;;
64667;SDS011;51077;42.716;23.344;2023-06-05T05:05:58;12.47;;;6.50;;
64667;SDS011;51077;42.716;23.344;2023-06-05T05:08:24;12.10;;;6.20;;
64667;SDS011;51077;42.716;23.344;2023-06-05T05:10:49;9.60;;;6.67;;
64667;SDS011;51077;42.716;23.344;2023-06-05T05:13:15;9.50;;;6.57;;
64667;SDS011;51077;42.716;23.344;2023-06-05T05:15:40;10.63;;;6.77;;
64667;SDS011;51077;42.716;23.344;2023-06-05T05:18:06;9.73;;;6.13;;
64667;SDS011;51077;42.716;23.344;2023-06-05T05:20:31;9.60;;;6.47;;
64667;SDS011;51077;42.716;23.344;2023-06-05T05:22:58;12.38;;;6.43;;
64667;SDS011;51077;42.716;23.344;2023-06-05T05:25:25;10.18;;;6.10;;
64667;SDS011;51077;42.716;23.344;2023-06-05T05:27:51;9.77;;;6.38;;
64667;SDS011;51077;42.716;23.344;2023-06-05T05:30:16;11.50;;;6.60;;
64667;SDS011;51077;42.716;23.344;2023-06-05T05:32:42;9.80;;;6.50;;
64667;SDS011;51077;42.716;23.344;2023-06-05T05:35:07;10.13;;;6.53;;
64667;SDS011;51077;42.716;23.344;2023-06-05T05:37:33;10.77;;;7.40;;
64667;SDS011;51077;42.716;23.344;2023-06-05T05:39:58;8.97;;;7.07;;
64667;SDS011;51077;42.716;23.344;2023-06-05T05:42:24;12.73;;;6.50;;
64667;SDS011;51077;42.716;23.344;2023-06-05T05:44:49;8.70;;;6.93;;
64667;SDS011;51077;42.716;23.344;2023-06-05T05:47:15;9.43;;;6.50;;
64667;SDS011;51077;42.716;23.344;2023-06-05T05:49:40;13.00;;;7.30;;
64667;SDS011;51077;42.716;23.344;2023-06-05T05:52:06;10.10;;;6.43;;
64667;SDS011;51077;42.716;23.344;2023-06-05T05:54:31;10.23;;;7.17;;
64667;SDS011;51077;42.716;23.344;2023-06-05T05:56:56;8.67;;;6.60;;
64667;SDS011;51077;42.716;23.344;2023-06-05T05:59:22;11.13;;;5.93;;
64667;SDS011;51077;42.716;23.344;2023-06-05T06:01:48;9.33;;;6.33;;
64667;SDS011;51077;42.716;23.344;2023-06-05T06:04:16;9.40;;;6.70;;
64667;SDS011;51077;42.716;23.344;2023-06-05T06:06:42;11.95;;;6.15;;
64667;SDS011;51077;42.716;23.344;2023-06-05T06:09:07;10.50;;;6.90;;
64667;SDS011;51077;42.716;23.344;2023-06-05T06:11:34;7.33;;;6.17;;
64667;SDS011;51077;42.716;23.344;2023-06-05T06:14:01;6.85;;;6.13;;
64667;SDS011;51077;42.716;23.344;2023-06-05T06:16:26;12.73;;;6.83;;
64667;SDS011;51077;42.716;23.344;2023-06-05T06:18:52;8.00;;;6.40;;
64667;SDS011;51077;42.716;23.344;2023-06-05T06:21:17;8.97;;;6.93;;
64667;SDS011;51077;42.716;23.344;2023-06-05T06:23:43;11.02;;;7.18;;
64667;SDS011;51077;42.716;23.344;2023-06-05T06:26:09;10.27;;;7.28;;
64667;SDS011;51077;42.716;23.344;2023-06-05T06:28:36;11.88;;;7.70;;
64667;SDS011;51077;42.716;23.344;2023-06-05T06:31:02;14.33;;;7.57;;
64667;SDS011;51077;42.716;23.344;2023-06-05T06:33:28;9.53;;;8.03;;
64667;SDS011;51077;42.716;23.344;2023-06-05T06:35:54;10.18;;;8.05;;
64667;SDS011;51077;42.716;23.344;2023-06-05T06:38:20;12.95;;;8.73;;
64667;SDS011;51077;42.716;23.344;2023-06-05T06:40:45;12.90;;;8.63;;
64667;SDS011;51077;42.716;23.344;2023-06-05T06:43:11;9.45;;;8.05;;
64667;SDS011;51077;42.716;23.344;2023-06-05T06:45:37;10.77;;;8.57;;
64667;SDS011;51077;42.716;23.344;2023-06-05T06:48:02;10.47;;;8.50;;
64667;SDS011;51077;42.716;23.344;2023-06-05T06:50:28;10.63;;;8.77;;
64667;SDS011;51077;42.716;23.344;2023-06-05T06:52:53;11.93;;;8.70;;
64667;SDS011;51077;42.716;23.344;2023-06-05T06:55:18;12.13;;;10.00;;
64667;SDS011;51077;42.716;23.344;2023-06-05T06:57:44;12.97;;;9.43;;
64667;SDS011;51077;42.716;23.344;2023-06-05T07:00:10;14.10;;;9.83;;
64667;SDS011;51077;42.716;23.344;2023-06-05T07:02:36;12.35;;;9.80;;
64667;SDS011;51077;42.716;23.344;2023-06-05T07:05:04;13.88;;;9.88;;
64667;SDS011;51077;42.716;23.344;2023-06-05T07:07:31;13.07;;;10.10;;
64667;SDS011;51077;42.716;23.344;2023-06-05T07:09:56;12.20;;;9.67;;
64667;SDS011;51077;42.716;23.344;2023-06-05T07:12:23;11.60;;;9.80;;
64667;SDS011;51077;42.716;23.344;2023-06-05T07:14:48;11.93;;;9.03;;
64667;SDS011;51077;42.716;23.344;2023-06-05T07:17:14;14.23;;;10.00;;
64667;SDS011;51077;42.716;23.344;2023-06-05T07:19:39;14.70;;;11.23;;
64667;SDS011;51077;42.716;23.344;2023-06-05T07:22:05;13.43;;;10.60;;
64667;SDS011;51077;42.716;23.344;2023-06-05T07:24:31;14.98;;;10.95;;
64667;SDS011;51077;42.716;23.344;2023-06-05T07:27:00;16.00;;;10.48;;
64667;SDS011;51077;42.716;23.344;2023-06-05T07:29:27;14.68;;;10.57;;
64667;SDS011;51077;42.716;23.344;2023-06-05T07:31:54;15.33;;;11.10;;
64667;SDS011;51077;42.716;23.344;2023-06-05T07:34:20;13.90;;;10.52;;
64667;SDS011;51077;42.716;23.344;2023-06-05T07:36:47;15.65;;;10.60;;
64667;SDS011;51077;42.716;23.344;2023-06-05T07:39:15;13.90;;;10.05;;
64667;SDS011;51077;42.716;23.344;2023-06-05T07:41:41;14.17;;;9.73;;
64667;SDS011;51077;42.716;23.344;2023-06-05T07:44:08;13.18;;;8.82;;
64667;SDS011;51077;42.716;23.344;2023-06-05T07:46:35;12.05;;;9.43;;
64667;SDS011;51077;42.716;23.344;2023-06-05T07:49:00;15.50;;;10.10;;
64667;SDS011;51077;42.716;23.344;2023-06-05T07:51:25;11.90;;;8.87;;
64667;SDS011;51077;42.716;23.344;2023-06-05T07:53:51;13.53;;;9.10;;
64667;SDS011;51077;42.716;23.344;2023-06-05T07:56:16;15.00;;;9.90;;
64667;SDS011;51077;42.716;23.344;2023-06-05T07:58:42;13.03;;;9.80;;
64667;SDS011;51077;42.716;23.344;2023-06-05T08:01:07;11.23;;;9.40;;
64667;SDS011;51077;42.716;23.344;2023-06-05T08:03:35;14.48;;;9.43;;
64667;SDS011;51077;42.716;23.344;2023-06-05T08:06:00;12.07;;;8.83;;
64667;SDS011;51077;42.716;23.344;2023-06-05T08:08:27;12.82;;;9.07;;
64667;SDS011;51077;42.716;23.344;2023-06-05T08:10:52;10.93;;;8.97;;
64667;SDS011;51077;42.716;23.344;2023-06-05T08:13:18;10.53;;;9.00;;
64667;SDS011;51077;42.716;23.344;2023-06-05T08:15:43;12.30;;;9.13;;
64667;SDS011;51077;42.716;23.344;2023-06-05T08:18:09;12.87;;;9.37;;
64667;SDS011;51077;42.716;23.344;2023-06-05T08:20:34;10.97;;;8.73;;
64667;SDS011;51077;42.716;23.344;2023-06-05T08:23:00;11.43;;;9.07;;
64667;SDS011;51077;42.716;23.344;2023-06-05T08:25:25;11.83;;;9.00;;
64667;SDS011;51077;42.716;23.344;2023-06-05T08:27:51;14.15;;;8.88;;
64667;SDS011;51077;42.716;23.344;2023-06-05T08:30:17;10.43;;;8.53;;
64667;SDS011;51077;42.716;23.344;2023-06-05T08:32:43;11.35;;;8.50;;
64667;SDS011;51077;42.716;23.344;2023-06-05T08:35:09;10.23;;;8.57;;
64667;SDS011;51077;42.716;23.344;2023-06-05T08:37:36;12.13;;;8.05;;
64667;SDS011;51077;42.716;23.344;2023-06-05T08:40:05;12.23;;;8.30;;
64667;SDS011;51077;42.716;23.344;2023-06-05T08:42:35;11.30;;;8.30;;
64667;SDS011;51077;42.716;23.344;2023-06-05T08:45:03;14.65;;;8.43;;
64667;SDS011;51077;42.716;23.344;2023-06-05T08:47:32;11.32;;;8.55;;
64667;SDS011;51077;42.716;23.344;2023-06-05T08:50:03;11.50;;;8.18;;
64667;SDS011;51077;42.716;23.344;2023-06-05T08:52:30;9.35;;;7.68;;
64667;SDS011;51077;42.716;23.344;2023-06-05T08:54:58;10.90;;;7.90;;
64667;SDS011;51077;42.716;23.344;2023-06-05T08:57:24;10.57;;;7.90;;
64667;SDS011;51077;42.716;23.344;2023-06-05T08:59:49;13.70;;;8.10;;
64667;SDS011;51077;42.716;23.344;2023-06-05T09:02:15;10.48;;;7.63;;
64667;SDS011;51077;42.716;23.344;2023-06-05T09:04:41;8.90;;;7.17;;
64667;SDS011;51077;42.716;23.344;2023-06-05T09:07:06;9.33;;;7.37;;
64667;SDS011;51077;42.716;23.344;2023-06-05T09:09:33;9.77;;;7.17;;
64667;SDS011;51077;42.716;23.344;2023-06-05T09:12:05;8.95;;;7.18;;
64667;SDS011;51077;42.716;23.344;2023-06-05T09:14:34;8.25;;;6.80;;
64667;SDS011;51077;42.716;23.344;2023-06-05T09:17:01;8.82;;;7.15;;
64667;SDS011;51077;42.716;23.344;2023-06-05T09:19:37;11.80;;;6.38;;
64667;SDS011;51077;42.716;23.344;2023-06-05T09:22:03;10.43;;;7.05;;
64667;SDS011;51077;42.716;23.344;2023-06-05T09:24:31;9.13;;;7.45;;
64667;SDS011;51077;42.716;23.344;2023-06-05T09:29:28;9.52;;;6.07;;
64667;SDS011;51077;42.716;23.344;2023-06-05T09:32:00;10.13;;;6.45;;
64667;SDS011;51077;42.716;23.344;2023-06-05T09:34:28;8.10;;;6.32;;
64667;SDS011;51077;42.716;23.344;2023-06-05T09:36:58;11.35;;;6.68;;
64667;SDS011;51077;42.716;23.344;2023-06-05T09:39:25;8.95;;;6.18;;
64667;SDS011;51077;42.716;23.344;2023-06-05T09:41:52;8.77;;;6.35;;
64667;SDS011;51077;42.716;23.344;2023-06-05T09:44:19;8.55;;;6.18;;
64667;SDS011;51077;42.716;23.344;2023-06-05T09:52:05;8.10;;;6.15;;
64667;SDS011;51077;42.716;23.344;2023-06-05T09:54:36;12.60;;;5.55;;
64667;SDS011;51077;42.716;23.344;2023-06-05T09:57:04;8.32;;;5.20;;
64667;SDS011;51077;42.716;23.344;2023-06-05T09:59:34;7.05;;;5.28;;
64667;SDS011;51077;42.716;23.344;2023-06-05T10:02:07;9.77;;;5.32;;
64667;SDS011;51077;42.716;23.344;2023-06-05T10:04:42;7.95;;;5.40;;
64667;SDS011;51077;42.716;23.344;2023-06-05T10:07:11;7.05;;;4.93;;
64667;SDS011;51077;42.716;23.344;2023-06-05T10:09:38;6.50;;;5.03;;
64667;SDS011;51077;42.716;23.344;2023-06-05T10:12:06;7.57;;;4.88;;
64667;SDS011;51077;42.716;23.344;2023-06-05T10:14:35;6.57;;;5.03;;
64667;SDS011;51077;42.716;23.344;2023-06-05T10:17:01;8.57;;;5.13;;
64667;SDS011;51077;42.716;23.344;2023-06-05T10:19:27;8.02;;;5.40;;
64667;SDS011;51077;42.716;23.344;2023-06-05T10:21:53;8.43;;;4.80;;
64667;SDS011;51077;42.716;23.344;2023-06-05T10:24:26;7.47;;;4.87;;
64667;SDS011;51077;42.716;23.344;2023-06-05T10:40:34;10.35;;;6.00;;
64667;SDS011;51077;42.716;23.344;2023-06-05T10:51:49;7.35;;;5.43;;
64667;SDS011;51077;42.716;23.344;2023-06-05T10:56:56;8.48;;;5.85;;
64667;SDS011;51077;42.716;23.344;2023-06-05T10:59:31;7.93;;;4.90;;
64667;SDS011;51077;42.716;23.344;2023-06-05T11:07:17;7.35;;;4.85;;
64667;SDS011;51077;42.716;23.344;2023-06-05T11:15:05;6.60;;;5.23;;
64667;SDS011;51077;42.716;23.344;2023-06-05T11:17:41;5.80;;;5.20;;
64667;SDS011;51077;42.716;23.344;2023-06-05T11:20:09;10.15;;;5.40;;
64667;SDS011;51077;42.716;23.344;2023-06-05T11:27:57;5.97;;;4.50;;
64667;SDS011;51077;42.716;23.344;2023-06-05T11:30:30;5.53;;;4.47;;
64667;SDS011;51077;42.716;23.344;2023-06-05T11:33:10;7.67;;;4.57;;
64667;SDS011;51077;42.716;23.344;2023-06-05T11:35:40;7.03;;;4.63;;
64667;SDS011;51077;42.716;23.344;2023-06-05T11:38:08;7.53;;;4.60;;
64667;SDS011;51077;42.716;23.344;2023-06-05T11:40:37;7.10;;;4.13;;
64667;SDS011;51077;42.716;23.344;2023-06-05T11:43:04;6.63;;;4.40;;
64667;SDS011;51077;42.716;23.344;2023-06-05T11:45:31;5.33;;;3.77;;
64667;SDS011;51077;42.716;23.344;2023-06-05T11:48:05;7.13;;;4.23;;
64667;SDS011;51077;42.716;23.344;2023-06-05T11:50:32;7.20;;;4.47;;
64667;SDS011;51077;42.716;23.344;2023-06-05T11:53:08;7.13;;;3.83;;
64667;SDS011;51077;42.716;23.344;2023-06-05T11:55:35;5.60;;;3.83;;
64667;SDS011;51077;42.716;23.344;2023-06-05T11:58:28;5.37;;;3.73;;
64667;SDS011;51077;42.716;23.344;2023-06-05T12:01:37;8.57;;;4.20;;
64667;SDS011;51077;42.716;23.344;2023-06-05T12:03:47;7.17;;;3.63;;
64667;SDS011;51077;42.716;23.344;2023-06-05T12:06:14;4.70;;;3.63;;
64667;SDS011;51077;42.716;23.344;2023-06-05T12:08:42;5.40;;;3.70;;
64667;SDS011;51077;42.716;23.344;2023-06-05T12:11:19;4.63;;;3.30;;
64667;SDS011;51077;42.716;23.344;2023-06-05T12:13:51;7.00;;;4.13;;
64667;SDS011;51077;42.716;23.344;2023-06-05T12:16:18;7.40;;;3.97;;
64667;SDS011;51077;42.716;23.344;2023-06-05T12:18:47;4.87;;;3.37;;
64667;SDS011;51077;42.716;23.344;2023-06-05T12:21:23;6.57;;;3.33;;
64667;SDS011;51077;42.716;23.344;2023-06-05T12:23:51;4.07;;;3.13;;
64667;SDS011;51077;42.716;23.344;2023-06-05T12:26:17;6.20;;;3.60;;
64667;SDS011;51077;42.716;23.344;2023-06-05T12:28:44;5.53;;;3.23;;
64667;SDS011;51077;42.716;23.344;2023-06-05T12:31:32;4.23;;;2.97;;
64667;SDS011;51077;42.716;23.344;2023-06-05T12:34:04;4.30;;;3.20;;
64667;SDS011;51077;42.716;23.344;2023-06-05T12:36:30;6.30;;;3.37;;
64667;SDS011;51077;42.716;23.344;2023-06-05T12:39:01;3.97;;;2.90;;
64667;SDS011;51077;42.716;23.344;2023-06-05T12:41:28;4.77;;;3.20;;
64667;SDS011;51077;42.716;23.344;2023-06-05T12:44:00;4.40;;;3.30;;
64667;SDS011;51077;42.716;23.344;2023-06-05T12:46:27;4.20;;;3.10;;
64667;SDS011;51077;42.716;23.344;2023-06-05T12:48:53;4.83;;;2.90;;
64667;SDS011;51077;42.716;23.344;2023-06-05T12:51:19;5.97;;;3.40;;
64667;SDS011;51077;42.716;23.344;2023-06-05T12:53:45;3.97;;;3.00;;
64667;SDS011;51077;42.716;23.344;2023-06-05T12:56:11;5.83;;;3.07;;
64667;SDS011;51077;42.716;23.344;2023-06-05T12:58:36;3.57;;;2.30;;
64667;SDS011;51077;42.716;23.344;2023-06-05T13:01:02;5.17;;;2.93;;
64667;SDS011;51077;42.716;23.344;2023-06-05T13:03:27;4.37;;;2.60;;
64667;SDS011;51077;42.716;23.344;2023-06-05T13:05:53;5.47;;;2.87;;
64667;SDS011;51077;42.716;23.344;2023-06-05T13:08:19;5.43;;;3.00;;
64667;SDS011;51077;42.716;23.344;2023-06-05T13:10:44;4.20;;;2.73;;
64667;SDS011;51077;42.716;23.344;2023-06-05T13:13:09;4.83;;;3.20;;
64667;SDS011;51077;42.716;23.344;2023-06-05T13:15:35;4.70;;;2.73;;
64667;SDS011;51077;42.716;23.344;2023-06-05T13:18:00;6.77;;;3.10;;
64667;SDS011;51077;42.716;23.344;2023-06-05T13:20:25;7.10;;;3.03;;
64667;SDS011;51077;42.716;23.344;2023-06-05T13:22:52;5.90;;;3.07;;
64667;SDS011;51077;42.716;23.344;2023-06-05T13:25:17;3.90;;;2.87;;
64667;SDS011;51077;42.716;23.344;2023-06-05T13:27:43;5.40;;;3.00;;
64667;SDS011;51077;42.716;23.344;2023-06-05T13:30:10;6.03;;;3.33;;
64667;SDS011;51077;42.716;23.344;2023-06-05T13:32:36;5.00;;;2.87;;
64667;SDS011;51077;42.716;23.344;2023-06-05T13:35:03;6.23;;;3.03;;
64667;SDS011;51077;42.716;23.344;2023-06-05T13:37:30;5.13;;;3.30;;
64667;SDS011;51077;42.716;23.344;2023-06-05T13:39:56;4.10;;;3.10;;
64667;SDS011;51077;42.716;23.344;2023-06-05T13:42:21;4.27;;;2.80;;
64667;SDS011;51077;42.716;23.344;2023-06-05T13:44:47;5.20;;;3.25;;
64667;SDS011;51077;42.716;23.344;2023-06-05T13:47:13;7.63;;;3.40;;
64667;SDS011;51077;42.716;23.344;2023-06-05T13:49:39;6.23;;;3.03;;
64667;SDS011;51077;42.716;23.344;2023-06-05T13:52:05;3.95;;;3.10;;
64667;SDS011;51077;42.716;23.344;2023-06-05T13:54:31;4.77;;;3.33;;
64667;SDS011;51077;42.716;23.344;2023-06-05T13:56:56;5.83;;;3.23;;
64667;SDS011;51077;42.716;23.344;2023-06-05T13:59:24;4.25;;;3.05;;
64667;SDS011;51077;42.716;23.344;2023-06-05T14:01:49;7.07;;;2.90;;
64667;SDS011;51077;42.716;23.344;2023-06-05T14:04:15;7.00;;;3.23;;
64667;SDS011;51077;42.716;23.344;2023-06-05T14:06:40;4.60;;;2.87;;
64667;SDS011;51077;42.716;23.344;2023-06-05T14:09:07;6.28;;;2.95;;
64667;SDS011;51077;42.716;23.344;2023-06-05T14:11:32;6.30;;;3.10;;
64667;SDS011;51077;42.716;23.344;2023-06-05T14:13:58;4.87;;;3.10;;
64667;SDS011;51077;42.716;23.344;2023-06-05T14:16:24;7.87;;;3.27;;
64667;SDS011;51077;42.716;23.344;2023-06-05T14:18:50;4.72;;;3.08;;
64667;SDS011;51077;42.716;23.344;2023-06-05T14:21:16;7.40;;;2.97;;
64667;SDS011;51077;42.716;23.344;2023-06-05T14:23:41;5.80;;;3.20;;
64667;SDS011;51077;42.716;23.344;2023-06-05T14:26:07;6.27;;;3.13;;
64667;SDS011;51077;42.716;23.344;2023-06-05T14:28:33;5.90;;;3.43;;
64667;SDS011;51077;42.716;23.344;2023-06-05T14:30:58;5.40;;;3.60;;
64667;SDS011;51077;42.716;23.344;2023-06-05T14:33:24;6.63;;;3.47;;
64667;SDS011;51077;42.716;23.344;2023-06-05T14:35:49;5.63;;;3.80;;
64667;SDS011;51077;42.716;23.344;2023-06-05T14:38:16;5.47;;;3.72;;
64667;SDS011;51077;42.716;23.344;2023-06-05T14:40:41;4.90;;;3.70;;
64667;SDS011;51077;42.716;23.344;2023-06-05T14:43:06;9.27;;;3.47;;
64667;SDS011;51077;42.716;23.344;2023-06-05T14:45:32;6.30;;;3.67;;
64667;SDS011;51077;42.716;23.344;2023-06-05T14:47:58;7.47;;;4.20;;
64667;SDS011;51077;42.716;23.344;2023-06-05T14:50:23;8.67;;;3.70;;
64667;SDS011;51077;42.716;23.344;2023-06-05T14:52:49;5.10;;;3.57;;
64667;SDS011;51077;42.716;23.344;2023-06-05T14:55:14;6.93;;;4.10;;
64667;SDS011;51077;42.716;23.344;2023-06-05T14:57:40;5.93;;;3.70;;
64667;SDS011;51077;42.716;23.344;2023-06-05T15:00:05;6.10;;;3.53;;
64667;SDS011;51077;42.716;23.344;2023-06-05T15:02:33;6.60;;;3.88;;
64667;SDS011;51077;42.716;23.344;2023-06-05T15:04:59;7.93;;;4.15;;
64667;SDS011;51077;42.716;23.344;2023-06-05T15:07:24;7.40;;;3.70;;
64667;SDS011;51077;42.716;23.344;2023-06-05T15:09:50;6.60;;;3.83;;
64667;SDS011;51077;42.716;23.344;2023-06-05T15:12:19;9.70;;;4.18;;
64667;SDS011;51077;42.716;23.344;2023-06-05T15:14:44;8.68;;;4.18;;
64667;SDS011;51077;42.716;23.344;2023-06-05T15:17:09;8.37;;;3.70;;
64667;SDS011;51077;42.716;23.344;2023-06-05T15:19:35;6.83;;;3.90;;
64667;SDS011;51077;42.716;23.344;2023-06-05T15:22:00;5.40;;;3.43;;
64667;SDS011;51077;42.716;23.344;2023-06-05T15:24:26;5.77;;;3.40;;